Terminal Aerodrome Forecast
Issued by NWS

Home | Current Version | Previous Version | Graphics & Text | Print | Product List | Glossary On
Versions: 1 2 3 4 5 6 7 8 9 10 11 12 13 14 15
000
FTUS45 KGGW 150528 AAB
TAFOLF
TAF AMD
KOLF 150528Z 1505/1606 32012KT P6SM OVC020
     FM151000 VRB03KT P6SM SCT025 BKN060
     FM151800 10008KT P6SM SCT110 BKN210=

USA.gov is the U.S. government's official web portal to all federal, state and local government web resources and services.